Time;durP1;ratioP1;P1;durP2;ratioP2;P2;SDS_P1;SDS_P2;PMS_P1;PMS_P2;Temp;Humidity;BMP_temperature;BMP_pressure;BME280_temperature;BME280_humidity;BME280_pressure;Samples;Min_cycle;Max_cycle;Signal;HPM_P1;HPM_P2
2022/10/28 00:03:04;;;;;;;36.90;24.50;;;;;;;8.93;81.19;100849.45;209932;1289;140620;-72
2022/10/28 00:08:08;;;;;;;31.50;23.60;;;;;;;8.80;80.43;100846.53;209844;1293;140815;-70
2022/10/28 00:13:12;;;;;;;40.50;28.60;;;;;;;8.66;80.50;100836.10;209932;1289;140957;-70
2022/10/28 00:18:15;;;;;;;34.80;24.70;;;;;;;8.69;81.01;100842.13;209860;1295;141607;-69
2022/10/28 00:23:19;;;;;;;51.10;27.70;;;;;;;8.74;80.91;100844.00;209893;1294;140046;-72
2022/10/28 00:28:23;;;;;;;30.70;24.50;;;;;;;8.69;80.64;100849.61;207972;1297;141073;-76
2022/10/28 00:33:27;;;;;;;30.20;23.90;;;;;;;8.63;80.55;100847.13;210037;1282;141302;-72
2022/10/28 00:38:31;;;;;;;31.30;23.40;;;;;;;8.42;80.10;100844.32;210035;1297;140434;-72
2022/10/28 00:43:48;;;;;;;33.60;24.30;;;;;;;8.23;80.44;100837.73;209925;1295;140416;-71
2022/10/28 00:49:05;;;;;;;24.50;21.90;;;;;;;8.11;80.62;100827.14;209826;1303;141026;-70
2022/10/28 00:54:09;;;;;;;32.10;21.40;;;;;;;8.11;81.10;100820.96;209660;1300;141669;-71
2022/10/28 00:59:24;;;;;;;27.40;23.00;;;;;;;8.15;81.04;100812.70;209885;1297;140677;-73
2022/10/28 01:04:28;;;;;;;33.10;23.70;;;;;;;8.13;81.09;100810.48;210053;1297;141304;-75
2022/10/28 01:09:33;;;;;;;27.70;22.60;;;;;;;8.08;81.40;100800.76;209831;1297;139414;-74
2022/10/28 01:15:09;;;;;;;34.10;22.80;;;;;;;8.13;81.60;100797.37;209860;1293;140960;-71
2022/10/28 01:20:24;;;;;;;28.00;19.70;;;;;;;8.21;81.68;100794.01;209909;1289;141319;-74
2022/10/28 01:26:06;;;;;;;30.60;23.40;;;;;;;8.23;81.54;100792.15;210020;1297;141372;-71
2022/10/28 01:31:33;;;;;;;27.90;21.80;;;;;;;8.26;81.53;100790.43;209971;1297;139904;-71
2022/10/28 01:36:54;;;;;;;33.70;25.00;;;;;;;8.07;80.75;100791.31;209980;1289;140442;-69
2022/10/28 01:42:23;;;;;;;30.50;21.60;;;;;;;7.96;81.13;100785.58;210026;1303;141121;-77
2022/10/28 01:47:36;;;;;;;28.50;22.80;;;;;;;8.06;81.84;100795.02;210048;1301;140722;-72
2022/10/28 01:52:42;;;;;;;29.50;21.50;;;;;;;8.14;81.52;100786.30;209742;1287;141268;-72
2022/10/28 01:57:51;;;;;;;31.90;22.60;;;;;;;7.98;80.91;100780.95;209985;1281;141273;-70
2022/10/28 02:02:55;;;;;;;30.80;22.50;;;;;;;7.92;81.43;100778.09;209977;1297;139200;-71
2022/10/28 02:08:23;;;;;;;24.90;20.20;;;;;;;7.95;81.48;100777.13;210149;1297;141197;-72
2022/10/28 02:13:45;;;;;;;28.00;20.20;;;;;;;7.92;81.26;100776.30;209960;1297;247654;-73
2022/10/28 02:19:04;;;;;;;27.10;21.00;;;;;;;7.84;81.25;100771.28;209419;1297;140490;-72
2022/10/28 02:24:38;;;;;;;23.30;18.30;;;;;;;7.74;81.20;100760.95;209978;1296;140495;-75
2022/10/28 02:29:59;;;;;;;17.60;15.80;;;;;;;7.58;81.19;100756.35;208789;1291;141326;-75
2022/10/28 02:35:13;;;;;;;16.80;15.00;;;;;;;7.54;81.55;100755.45;209959;1296;141110;-75
2022/10/28 02:40:23;;;;;;;20.70;16.30;;;;;;;7.51;81.48;100751.88;209995;1297;141908;-75
2022/10/28 02:45:38;;;;;;;20.00;16.40;;;;;;;7.51;81.57;100749.76;209853;1297;141826;-75
2022/10/28 02:50:49;;;;;;;22.20;17.60;;;;;;;7.52;82.32;100749.64;209803;1290;139985;-75
2022/10/28 02:55:59;;;;;;;25.60;16.30;;;;;;;7.58;82.07;100750.48;209566;1304;141199;-74
2022/10/28 03:01:04;;;;;;;18.60;15.80;;;;;;;7.68;82.34;100752.68;209834;1297;141101;-74
2022/10/28 03:06:09;;;;;;;16.90;15.10;;;;;;;7.79;82.16;100748.54;208896;1300;141117;-74
2022/10/28 03:11:13;;;;;;;18.70;15.90;;;;;;;7.84;82.38;100750.58;209839;1286;140545;-75
2022/10/28 03:16:18;;;;;;;28.50;19.30;;;;;;;7.92;82.71;100753.79;209733;1297;140731;-74
2022/10/28 03:21:21;;;;;;;26.90;21.10;;;;;;;7.97;83.35;100740.13;209736;1304;140547;-71
2022/10/28 03:26:25;;;;;;;28.40;21.10;;;;;;;8.14;84.19;100736.70;209911;1297;141023;-75
2022/10/28 03:31:29;;;;;;;32.00;23.70;;;;;;;8.32;84.75;100731.75;209967;1298;140767;-75
2022/10/28 03:36:33;;;;;;;34.70;22.30;;;;;;;8.54;85.44;100736.30;209780;1297;140744;-75
2022/10/28 03:41:38;;;;;;;31.50;21.00;;;;;;;8.73;85.56;100737.98;209685;1297;140399;-74
2022/10/28 03:46:42;;;;;;;28.60;22.50;;;;;;;8.87;85.64;100728.14;209705;1303;140307;-73
2022/10/28 03:51:46;;;;;;;31.80;21.70;;;;;;;8.97;85.77;100717.83;209609;1296;140766;-72
2022/10/28 03:56:51;;;;;;;29.90;22.30;;;;;;;9.04;85.81;100715.93;208072;1287;143025;-73
2022/10/28 04:01:57;;;;;;;39.30;24.50;;;;;;;9.13;85.90;100710.06;209861;1297;141718;-71
2022/10/28 04:07:02;;;;;;;30.70;23.80;;;;;;;9.19;85.81;100705.39;209836;1296;141284;-71
2022/10/28 04:12:10;;;;;;;36.40;20.80;;;;;;;9.17;85.51;100700.20;209806;1299;140752;-72
2022/10/28 04:17:14;;;;;;;32.00;23.00;;;;;;;9.14;85.69;100707.04;210071;1296;139767;-72
2022/10/28 04:22:18;;;;;;;30.10;21.80;;;;;;;9.20;85.67;100704.45;209353;1294;150931;-69
2022/10/28 04:27:22;;;;;;;29.40;21.40;;;;;;;9.21;85.82;100694.91;209080;1289;140992;-72
2022/10/28 04:32:25;;;;;;;35.50;21.80;;;;;;;9.21;85.76;100680.80;209855;1297;141486;-75
2022/10/28 04:37:29;;;;;;;31.50;23.70;;;;;;;9.20;85.97;100680.38;209645;1297;140513;-74
2022/10/28 04:42:33;;;;;;;33.50;25.10;;;;;;;9.26;86.07;100677.41;209745;1297;140542;-72
2022/10/28 04:47:36;;;;;;;37.60;26.40;;;;;;;9.34;86.08;100678.29;209410;1297;141791;-72
2022/10/28 04:52:40;;;;;;;38.10;25.20;;;;;;;9.37;86.03;100672.23;209869;1303;140575;-73
2022/10/28 04:57:44;;;;;;;33.80;25.10;;;;;;;9.40;86.01;100670.92;210014;1301;236620;-73
2022/10/28 05:02:47;;;;;;;33.70;26.40;;;;;;;9.45;86.07;100669.26;208667;1297;141961;-72
2022/10/28 05:07:51;;;;;;;32.70;21.60;;;;;;;9.49;86.11;100676.84;210009;1297;141756;-71
2022/10/28 05:12:55;;;;;;;39.20;28.40;;;;;;;9.42;86.02;100676.86;210095;1290;140355;-73
2022/10/28 05:17:59;;;;;;;35.90;24.40;;;;;;;9.38;86.07;100679.30;209899;1296;140517;-73
2022/10/28 05:23:03;;;;;;;34.20;25.10;;;;;;;9.37;86.01;100678.78;209967;1297;155741;-73
2022/10/28 05:28:49;;;;;;;34.20;26.30;;;;;;;9.37;86.12;100673.09;209921;1294;141047;-73
2022/10/28 05:34:26;;;;;;;41.20;24.20;;;;;;;9.40;86.04;100671.30;209702;1295;389398;-72
2022/10/28 05:39:29;;;;;;;38.60;26.30;;;;;;;9.36;85.97;100667.44;209758;1305;140470;-73
2022/10/28 05:44:32;;;;;;;35.30;26.70;;;;;;;9.30;86.19;100665.59;209669;1303;140122;-73
2022/10/28 05:49:40;;;;;;;40.80;26.30;;;;;;;9.29;86.23;100667.43;209699;1287;141193;-73
2022/10/28 05:54:56;;;;;;;39.50;26.60;;;;;;;9.33;86.46;100663.80;209857;1297;141065;-73
2022/10/28 05:59:59;;;;;;;38.30;25.70;;;;;;;9.38;86.43;100664.09;209856;1297;141252;-72
2022/10/28 06:05:04;;;;;;;31.40;25.60;;;;;;;9.47;86.50;100670.33;210103;1297;140528;-72
2022/10/28 06:10:09;;;;;;;37.40;28.60;;;;;;;9.52;86.41;100671.20;210048;1289;140221;-73
2022/10/28 06:15:15;;;;;;;38.30;25.20;;;;;;;9.56;86.32;100661.04;209891;1305;142133;-72
2022/10/28 06:20:20;;;;;;;28.10;21.20;;;;;;;9.60;86.23;100662.72;209983;1300;140671;-73
2022/10/28 06:25:25;;;;;;;40.60;27.50;;;;;;;9.63;86.40;100663.63;209741;1304;139860;-73
2022/10/28 06:30:29;;;;;;;36.30;26.10;;;;;;;9.66;86.55;100661.58;209787;1298;141398;-73
2022/10/28 06:35:33;;;;;;;38.50;25.20;;;;;;;9.78;86.58;100662.10;210092;1290;141307;-69
2022/10/28 06:40:37;;;;;;;30.20;20.80;;;;;;;10.11;87.07;100667.62;210105;1296;140520;-72
2022/10/28 06:45:41;;;;;;;36.30;24.10;;;;;;;10.63;87.03;100670.04;210024;1289;141555;-73
2022/10/28 06:50:44;;;;;;;36.90;24.40;;;;;;;11.02;86.46;100667.69;208287;1293;140972;-72
2022/10/28 06:55:56;;;;;;;41.70;27.20;;;;;;;11.50;86.22;100667.27;209221;1293;139774;-72
2022/10/28 07:01:04;;;;;;;36.00;26.30;;;;;;;11.76;85.53;100668.53;209598;1299;143958;-73
2022/10/28 07:06:18;;;;;;;30.00;23.50;;;;;;;11.69;84.82;100663.96;209855;1302;141758;-73
2022/10/28 07:11:23;;;;;;;41.20;24.50;;;;;;;11.84;84.86;100663.73;209894;1303;140357;-72
2022/10/28 07:16:26;;;;;;;33.20;25.80;;;;;;;12.15;84.98;100662.41;209636;1299;141354;-73
2022/10/28 07:21:31;;;;;;;42.40;27.60;;;;;;;12.40;84.90;100660.17;209780;1299;141100;-72
2022/10/28 07:32:53;;;;;;;28.80;19.10;;;;;;;12.93;84.15;100655.52;209741;1296;244597;-72
2022/10/28 07:37:57;;;;;;;38.10;25.60;;;;;;;13.00;83.42;100660.59;209734;1299;141635;-69
2022/10/28 07:43:00;;;;;;;37.80;25.00;;;;;;;13.13;83.75;100663.95;209768;1303;140941;-73
2022/10/28 07:48:05;;;;;;;29.60;22.10;;;;;;;13.08;82.87;100672.66;209824;1301;140189;-72
2022/10/28 07:53:09;;;;;;;35.20;25.20;;;;;;;12.88;82.68;100671.26;209969;1305;140514;-72
2022/10/28 07:58:12;;;;;;;33.00;25.90;;;;;;;12.71;82.80;100675.67;209278;1297;142577;-71
2022/10/28 08:03:16;;;;;;;32.50;22.50;;;;;;;12.77;83.48;100677.66;209540;1287;142030;-73
2022/10/28 08:08:20;;;;;;;27.90;22.10;;;;;;;12.86;83.55;100678.67;209555;1303;247207;-73
2022/10/28 08:13:23;;;;;;;34.70;22.00;;;;;;;12.91;83.88;100677.63;209871;1297;142012;-74
2022/10/28 08:18:27;;;;;;;29.10;22.20;;;;;;;13.08;83.95;100670.55;209547;1293;140609;-73
2022/10/28 08:23:30;;;;;;;35.30;23.30;;;;;;;13.38;84.62;100666.02;210052;1298;141510;-69
2022/10/28 08:28:34;;;;;;;37.90;25.70;;;;;;;13.72;84.97;100656.25;209822;1294;140091;-71
2022/10/28 08:33:41;;;;;;;39.40;24.60;;;;;;;14.10;85.03;100657.20;209878;1301;141451;-73
2022/10/28 08:38:45;;;;;;;29.50;23.20;;;;;;;14.46;84.70;100652.13;208963;1301;141610;-72
2022/10/28 08:44:04;;;;;;;26.40;18.40;;;;;;;14.72;84.51;100656.35;209641;1295;140669;-74
2022/10/28 08:49:13;;;;;;;32.10;20.90;;;;;;;15.03;84.30;100647.23;209848;1298;139309;-73
2022/10/28 08:54:23;;;;;;;24.80;20.40;;;;;;;15.26;83.88;100647.00;209695;1296;140250;-72
2022/10/28 08:59:40;;;;;;;25.40;18.20;;;;;;;15.42;83.19;100640.44;209663;1297;143294;-73
2022/10/28 09:04:46;;;;;;;27.80;19.60;;;;;;;15.66;83.24;100641.26;209828;1296;142695;-73
2022/10/28 09:09:55;;;;;;;20.30;17.60;;;;;;;15.90;83.10;100636.62;209912;1293;150996;-73
2022/10/28 09:15:25;;;;;;;25.40;18.50;;;;;;;16.11;82.56;100641.77;209893;1303;140878;-73
2022/10/28 09:20:43;;;;;;;24.60;17.90;;;;;;;16.39;82.34;100633.77;209503;1293;142059;-73
2022/10/28 09:26:04;;;;;;;27.40;17.40;;;;;;;16.54;81.61;100639.08;209925;1303;140468;-72
2022/10/28 09:31:19;;;;;;;28.00;16.30;;;;;;;16.61;81.19;100635.14;209776;1297;140448;-72
2022/10/28 09:36:35;;;;;;;24.50;17.10;;;;;;;16.67;80.62;100630.17;209777;1297;140261;-73
2022/10/28 09:41:43;;;;;;;22.20;16.00;;;;;;;16.87;80.48;100634.52;209962;1291;224415;-73
2022/10/28 09:46:58;;;;;;;23.40;15.80;;;;;;;17.16;80.72;100631.29;209817;1297;140739;-73
2022/10/28 09:52:09;;;;;;;21.20;16.00;;;;;;;17.47;80.14;100622.91;210012;1297;140463;-73
2022/10/28 09:57:19;;;;;;;17.90;13.30;;;;;;;17.67;79.36;100615.92;209667;1297;140951;-73
2022/10/28 10:02:26;;;;;;;16.60;14.40;;;;;;;17.88;78.94;100617.39;209607;1305;140755;-73
2022/10/28 10:07:36;;;;;;;17.10;14.60;;;;;;;18.10;78.51;100620.96;209894;1297;140455;-72
2022/10/28 10:12:42;;;;;;;22.30;13.70;;;;;;;18.32;78.05;100618.79;209936;1300;141061;-73
2022/10/28 10:17:51;;;;;;;20.60;13.00;;;;;;;18.58;77.76;100617.75;209856;1291;141755;-72
2022/10/28 10:22:55;;;;;;;13.70;12.10;;;;;;;18.78;77.17;100622.02;209911;1291;139700;-74
2022/10/28 10:28:03;;;;;;;15.50;11.90;;;;;;;18.97;76.71;100623.23;208406;1297;141015;-70
2022/10/28 10:33:20;;;;;;;21.20;11.40;;;;;;;19.17;76.31;100612.08;209720;1300;142189;-73
2022/10/28 10:38:29;;;;;;;15.70;11.70;;;;;;;19.38;75.71;100608.44;209625;1300;140629;-70
2022/10/28 10:43:35;;;;;;;17.60;11.70;;;;;;;19.48;74.99;100609.84;209340;1295;140091;-73
2022/10/28 10:48:43;;;;;;;13.60;11.10;;;;;;;19.58;74.45;100607.63;209616;1297;142127;-74
2022/10/28 10:53:49;;;;;;;10.90;9.90;;;;;;;19.65;73.96;100607.61;209162;1289;141175;-72
2022/10/28 10:58:57;;;;;;;14.60;11.00;;;;;;;19.75;73.88;100602.30;209376;1290;139977;-72
2022/10/28 11:04:06;;;;;;;14.30;10.80;;;;;;;19.89;73.38;100603.34;209909;1297;140016;-72
2022/10/28 11:09:18;;;;;;;12.00;10.40;;;;;;;20.00;73.01;100602.71;209908;1297;192598;-73
2022/10/28 11:14:23;;;;;;;12.70;10.60;;;;;;;20.13;72.60;100600.13;209973;1296;140518;-74
2022/10/28 11:19:35;;;;;;;16.50;10.30;;;;;;;20.19;72.18;100600.25;208766;1291;140766;-74
2022/10/28 11:24:46;;;;;;;13.60;10.40;;;;;;;20.26;71.87;100600.38;210030;1294;140053;-74
2022/10/28 11:29:49;;;;;;;10.70;9.60;;;;;;;20.33;71.50;100594.66;210080;1297;141127;-75
2022/10/28 11:35:35;;;;;;;14.10;10.20;;;;;;;20.38;71.36;100587.52;209927;1300;140657;-75
2022/10/28 11:41:09;;;;;;;10.30;8.80;;;;;;;20.47;70.77;100584.67;209850;1297;140832;-73
2022/10/28 11:46:38;;;;;;;11.60;8.30;;;;;;;20.51;70.41;100574.98;209833;1297;141284;-73
2022/10/28 11:52:00;;;;;;;7.90;7.20;;;;;;;20.56;70.11;100575.44;209914;1298;224583;-75
2022/10/28 11:57:16;;;;;;;10.30;8.40;;;;;;;20.64;69.80;100567.06;209819;1305;141143;-74
2022/10/28 12:02:47;;;;;;;16.10;7.50;;;;;;;20.66;69.37;100564.17;209842;1297;140353;-74
2022/10/28 12:08:17;;;;;;;8.80;7.20;;;;;;;20.68;69.32;100553.49;209772;1297;141760;-74
2022/10/28 12:13:40;;;;;;;9.00;7.70;;;;;;;20.71;69.00;100544.42;209716;1297;140800;-74
2022/10/28 12:18:53;;;;;;;10.00;8.30;;;;;;;20.65;68.75;100542.95;209956;1297;141143;-74
2022/10/28 12:23:58;;;;;;;8.20;6.60;;;;;;;20.57;68.58;100544.94;209612;1297;140174;-75
2022/10/28 12:29:08;;;;;;;7.00;6.40;;;;;;;20.45;68.58;100539.98;209880;1300;140913;-72
2022/10/28 12:34:19;;;;;;;7.40;6.60;;;;;;;20.49;68.81;100536.60;208430;1297;141205;-72
2022/10/28 12:39:24;;;;;;;7.00;5.60;;;;;;;20.65;68.80;100535.95;209047;1296;140074;-72
2022/10/28 12:44:32;;;;;;;7.70;6.20;;;;;;;20.75;68.35;100539.09;208189;1296;140771;-72
2022/10/28 12:49:44;;;;;;;6.10;4.90;;;;;;;20.69;68.05;100539.98;210004;1297;141468;-70
2022/10/28 12:54:57;;;;;;;10.20;6.80;;;;;;;20.62;68.16;100533.27;210035;1305;140927;-72
2022/10/28 13:00:23;;;;;;;10.40;5.00;;;;;;;20.50;68.10;100526.03;209855;1296;139592;-74
2022/10/28 13:05:40;;;;;;;6.20;4.30;;;;;;;20.35;67.79;100527.52;209688;1297;140527;-69
2022/10/28 13:10:55;;;;;;;5.30;4.80;;;;;;;20.26;67.97;100528.59;209766;1296;139696;-72
2022/10/28 13:16:22;;;;;;;6.80;5.90;;;;;;;20.19;67.81;100526.30;209980;1297;140456;-75
2022/10/28 13:21:47;;;;;;;7.60;5.80;;;;;;;20.20;68.02;100519.58;209781;1297;140657;-78
2022/10/28 13:26:53;;;;;;;10.10;4.80;;;;;;;20.33;68.29;100515.12;209947;1302;139612;-80
2022/10/28 13:31:58;;;;;;;9.40;5.20;;;;;;;20.53;68.14;100511.44;210040;1294;140542;-77
2022/10/28 13:37:14;;;;;;;10.00;5.60;;;;;;;20.68;68.06;100519.30;210037;1303;139695;-75
2022/10/28 13:42:22;;;;;;;6.30;5.30;;;;;;;20.73;68.02;100518.73;209875;1297;140660;-75
2022/10/28 13:47:34;;;;;;;5.60;5.10;;;;;;;20.76;67.77;100515.56;210187;1304;139966;-75
2022/10/28 13:52:40;;;;;;;4.90;4.40;;;;;;;20.76;67.70;100519.89;210050;1296;140231;-76
2022/10/28 13:57:47;;;;;;;5.90;4.10;;;;;;;20.75;67.37;100516.17;210002;1296;140457;-68
2022/10/28 14:02:53;;;;;;;6.60;5.10;;;;;;;20.74;67.20;100522.46;209786;1297;140748;-68
2022/10/28 14:08:05;;;;;;;10.40;5.10;;;;;;;20.75;67.17;100527.65;209875;1297;141583;-73
2022/10/28 14:13:19;;;;;;;6.40;4.60;;;;;;;20.70;67.16;100532.45;209529;1288;139460;-79
2022/10/28 14:18:24;;;;;;;5.50;4.60;;;;;;;20.57;67.00;100522.02;209402;1289;140118;-82
2022/10/28 14:24:07;;;;;;;6.30;3.90;;;;;;;20.36;66.85;100526.54;210084;1296;247255;-74
2022/10/28 14:29:31;;;;;;;4.60;3.60;;;;;;;20.05;66.95;100518.41;209723;1289;140751;-72
2022/10/28 14:34:41;;;;;;;4.20;3.80;;;;;;;19.76;67.13;100515.52;210087;1296;139690;-75
2022/10/28 14:40:07;;;;;;;4.60;3.80;;;;;;;19.57;67.28;100510.55;209641;1291;142165;-78
2022/10/28 14:45:11;;;;;;;6.60;4.50;;;;;;;19.47;67.73;100504.98;210200;1296;140275;-79
2022/10/28 14:50:20;;;;;;;5.90;4.60;;;;;;;19.32;67.88;100497.98;210055;1297;141338;-76
2022/10/28 14:55:32;;;;;;;5.10;4.60;;;;;;;19.16;67.99;100489.26;209827;1297;219398;-79
2022/10/28 15:00:44;;;;;;;5.20;3.80;;;;;;;18.96;68.22;100475.73;209941;1289;139612;-68
2022/10/28 15:05:50;;;;;;;13.40;4.80;;;;;;;18.81;68.31;100466.06;210163;1299;143203;-75
2022/10/28 15:10:54;;;;;;;8.60;4.30;;;;;;;18.70;68.49;100465.25;209730;1297;141939;-76
2022/10/28 15:15:59;;;;;;;10.20;5.40;;;;;;;18.56;68.62;100469.41;209769;1299;140672;-77
2022/10/28 15:21:09;;;;;;;8.90;5.40;;;;;;;18.42;68.80;100480.23;209161;1297;140387;-78
2022/10/28 15:26:15;;;;;;;10.10;5.80;;;;;;;18.21;68.85;100470.37;209848;1298;141170;-76
2022/10/28 15:31:19;;;;;;;7.50;6.20;;;;;;;18.04;69.38;100475.23;209806;1297;141107;-75
2022/10/28 15:36:25;;;;;;;8.20;6.10;;;;;;;17.97;69.71;100478.41;209857;1297;140873;-73
2022/10/28 15:41:43;;;;;;;8.10;6.20;;;;;;;17.90;69.91;100473.27;209877;1297;140746;-74
2022/10/28 15:46:49;;;;;;;10.00;6.80;;;;;;;17.79;69.99;100471.11;209787;1288;140552;-75
2022/10/28 15:52:15;;;;;;;12.90;6.00;;;;;;;17.66;70.22;100470.95;209981;1295;140234;-76
2022/10/28 15:57:25;;;;;;;12.10;7.30;;;;;;;17.57;70.53;100475.58;209721;1291;140781;-76
2022/10/28 16:02:40;;;;;;;10.40;5.80;;;;;;;17.51;70.79;100464.66;209770;1299;140361;-74
2022/10/28 16:07:45;;;;;;;9.40;6.40;;;;;;;17.37;70.88;100447.89;209967;1298;140620;-73
2022/10/28 16:12:50;;;;;;;7.70;7.00;;;;;;;17.31;71.49;100448.94;210002;1274;139380;-73
2022/10/28 16:17:54;;;;;;;10.80;6.50;;;;;;;17.24;71.42;100449.98;210156;1297;140292;-72
2022/10/28 16:23:00;;;;;;;12.60;7.50;;;;;;;17.10;71.56;100448.45;209809;1298;141405;-72
2022/10/28 16:28:24;;;;;;;8.80;6.70;;;;;;;17.00;71.75;100450.00;209550;1297;140440;-77
2022/10/28 16:33:32;;;;;;;10.30;8.10;;;;;;;16.88;72.02;100447.59;209845;1304;140540;-79
2022/10/28 16:38:37;;;;;;;7.70;6.80;;;;;;;16.79;72.42;100441.82;210042;1304;140807;-77
2022/10/28 16:43:42;;;;;;;10.80;7.40;;;;;;;16.74;72.40;100435.29;208731;1297;141006;-78
2022/10/28 16:48:48;;;;;;;11.10;8.30;;;;;;;16.70;72.42;100428.41;209880;1303;140136;-73
2022/10/28 16:53:52;;;;;;;13.60;8.70;;;;;;;16.65;72.78;100434.00;209665;1293;139627;-69
2022/10/28 16:58:56;;;;;;;15.10;9.20;;;;;;;16.58;72.99;100429.89;209531;1298;140436;-68
2022/10/28 17:04:00;;;;;;;15.00;8.60;;;;;;;16.53;73.08;100440.45;209827;1297;141455;-69
2022/10/28 17:09:03;;;;;;;12.90;9.30;;;;;;;16.47;73.27;100438.54;210091;1290;140351;-69
2022/10/28 17:14:07;;;;;;;12.40;8.90;;;;;;;16.40;73.44;100433.30;209968;1297;140555;-71
2022/10/28 17:19:12;;;;;;;12.20;7.90;;;;;;;16.35;73.64;100443.00;209684;1291;142117;-71
2022/10/28 17:24:15;;;;;;;13.00;8.70;;;;;;;16.28;73.55;100448.03;209626;1300;141804;-72
2022/10/28 17:29:19;;;;;;;9.90;8.10;;;;;;;16.19;73.84;100447.70;210052;1296;141445;-73
2022/10/28 17:34:22;;;;;;;16.80;9.00;;;;;;;16.12;74.13;100441.39;210098;1281;140370;-72
2022/10/28 17:39:26;;;;;;;13.80;8.10;;;;;;;16.08;74.21;100442.36;209642;1297;140302;-70
2022/10/28 17:44:29;;;;;;;9.00;7.90;;;;;;;16.05;74.50;100450.61;209653;1297;140323;-70
2022/10/28 17:49:35;;;;;;;8.60;7.40;;;;;;;16.06;74.56;100450.63;209820;1303;140638;-70
2022/10/28 17:54:39;;;;;;;11.10;8.00;;;;;;;16.00;74.75;100450.17;209869;1297;140598;-75
2022/10/28 17:59:43;;;;;;;10.00;8.70;;;;;;;15.94;74.73;100441.13;210008;1282;140528;-76
2022/10/28 18:04:47;;;;;;;12.20;8.10;;;;;;;15.91;74.90;100434.48;209699;1297;140980;-76
2022/10/28 18:09:53;;;;;;;10.50;7.70;;;;;;;15.92;74.99;100421.86;209829;1297;141059;-72
2022/10/28 18:14:57;;;;;;;9.10;6.60;;;;;;;15.91;75.10;100413.52;209811;1295;140793;-73
2022/10/28 18:20:01;;;;;;;11.70;8.00;;;;;;;15.78;74.98;100404.85;209772;1281;140427;-73
2022/10/28 18:25:06;;;;;;;10.50;8.40;;;;;;;15.68;75.08;100403.44;209668;1291;141671;-72
2022/10/28 18:30:11;;;;;;;9.80;8.10;;;;;;;15.58;75.42;100405.10;209684;1304;140825;-74
2022/10/28 18:35:16;;;;;;;11.00;8.10;;;;;;;15.52;75.45;100405.64;209857;1304;140174;-72
2022/10/28 18:40:26;;;;;;;11.30;8.40;;;;;;;15.50;75.69;100399.61;208575;1289;140759;-73
2022/10/28 18:45:33;;;;;;;13.10;6.40;;;;;;;15.49;75.67;100402.48;209715;1297;140642;-72
2022/10/28 18:50:41;;;;;;;12.20;6.60;;;;;;;15.46;75.85;100404.23;209675;1291;225904;-73
2022/10/28 18:55:52;;;;;;;8.90;6.20;;;;;;;15.44;75.83;100391.59;209952;1304;139622;-73
2022/10/28 19:01:04;;;;;;;7.20;6.50;;;;;;;15.42;75.76;100391.06;209965;1300;141055;-72
2022/10/28 19:06:16;;;;;;;7.30;6.60;;;;;;;15.45;75.90;100395.78;209690;1297;140741;-73
2022/10/28 19:11:24;;;;;;;13.20;7.50;;;;;;;15.43;75.77;100392.27;210213;1296;139359;-73
2022/10/28 19:16:35;;;;;;;13.90;6.50;;;;;;;15.35;75.79;100387.59;209715;1290;141653;-72
2022/10/28 19:21:49;;;;;;;12.90;6.80;;;;;;;15.34;75.72;100391.76;209706;1304;140726;-71
2022/10/28 19:26:54;;;;;;;14.40;8.60;;;;;;;15.31;75.72;100394.05;209870;1297;140416;-73
2022/10/28 19:31:58;;;;;;;10.90;6.80;;;;;;;15.23;75.81;100387.83;209364;1297;140402;-71
2022/10/28 19:37:03;;;;;;;8.20;6.80;;;;;;;15.20;76.03;100380.39;209908;1281;140556;-72
2022/10/28 19:42:07;;;;;;;10.60;8.30;;;;;;;15.16;75.90;100380.27;209892;1297;140930;-72
2022/10/28 19:47:13;;;;;;;14.30;7.00;;;;;;;15.15;75.99;100392.28;209445;1297;141567;-77
2022/10/28 19:52:18;;;;;;;8.10;7.30;;;;;;;15.18;76.15;100396.35;209729;1298;141356;-75
2022/10/28 19:57:22;;;;;;;11.20;6.90;;;;;;;15.19;76.20;100386.11;210101;1293;140954;-76
2022/10/28 20:02:28;;;;;;;15.80;7.40;;;;;;;15.12;76.11;100384.89;210089;1296;139489;-75
2022/10/28 20:07:33;;;;;;;10.00;7.40;;;;;;;15.02;75.91;100383.34;209974;1291;140309;-77
2022/10/28 20:12:37;;;;;;;10.40;7.80;;;;;;;14.95;76.10;100384.99;209976;1297;140381;-78
2022/10/28 20:17:44;;;;;;;9.10;6.30;;;;;;;14.92;76.10;100379.84;209969;1297;140549;-78
2022/10/28 20:22:50;;;;;;;11.40;6.30;;;;;;;14.86;76.31;100389.69;210082;1297;141212;-69
2022/10/28 20:27:53;;;;;;;9.30;7.00;;;;;;;14.86;76.32;100392.27;209814;1297;140999;-71
2022/10/28 20:32:58;;;;;;;13.80;7.20;;;;;;;14.83;76.18;100392.27;208638;1297;141425;-73
2022/10/28 20:38:02;;;;;;;13.70;7.30;;;;;;;14.81;76.31;100378.45;208383;1293;140224;-75
2022/10/28 20:43:06;;;;;;;10.60;6.40;;;;;;;14.77;76.08;100369.10;209681;1299;140131;-69
2022/10/28 20:48:10;;;;;;;9.50;7.50;;;;;;;14.68;75.95;100366.88;210015;1289;140089;-76
2022/10/28 20:53:14;;;;;;;13.60;8.60;;;;;;;14.63;76.15;100364.46;208831;1297;140586;-76
2022/10/28 20:58:21;;;;;;;11.40;7.30;;;;;;;14.57;75.86;100372.56;208059;1297;141243;-75
2022/10/28 21:03:25;;;;;;;13.50;7.90;;;;;;;14.42;75.90;100365.29;209770;1297;140220;-74
2022/10/28 21:08:29;;;;;;;9.30;5.80;;;;;;;14.35;76.07;100367.42;209809;1297;140583;-72
2022/10/28 21:13:33;;;;;;;12.10;7.00;;;;;;;14.27;76.13;100367.66;209464;1297;140166;-71
2022/10/28 21:18:39;;;;;;;11.00;7.20;;;;;;;14.14;75.86;100361.98;209563;1299;140792;-70
2022/10/28 21:23:44;;;;;;;24.30;7.80;;;;;;;14.05;76.19;100355.19;209814;1297;139466;-72
2022/10/28 21:28:51;;;;;;;;;;;;;;;13.96;76.32;100343.29;209707;1297;140970;-73
2022/10/28 21:33:57;;;;;;;12.50;7.70;;;;;;;13.89;76.34;100339.30;208210;1290;127385;-73
2022/10/28 21:39:08;;;;;;;9.20;6.90;;;;;;;13.81;76.30;100334.01;210051;1297;142600;-72
2022/10/28 21:44:12;;;;;;;8.50;6.30;;;;;;;13.74;76.47;100328.29;209888;1296;140262;-71
2022/10/28 21:49:17;;;;;;;9.30;5.70;;;;;;;13.70;76.46;100325.26;209624;1299;139577;-71
2022/10/28 21:54:21;;;;;;;10.10;7.30;;;;;;;13.62;76.38;100325.42;209902;1297;141705;-72
2022/10/28 21:59:30;;;;;;;12.20;7.10;;;;;;;13.62;76.39;100326.76;209977;1299;141334;-76
2022/10/28 22:04:38;;;;;;;10.90;6.60;;;;;;;13.57;76.61;100323.61;210044;1297;140575;-74
2022/10/28 22:09:44;;;;;;;16.00;7.40;;;;;;;13.52;76.57;100322.67;210000;1297;140559;-73
2022/10/28 22:14:54;;;;;;;11.00;6.80;;;;;;;13.51;76.34;100327.10;209822;1291;140862;-73
2022/10/28 22:20:00;;;;;;;8.50;5.70;;;;;;;13.47;76.42;100328.73;209989;1297;140467;-72
2022/10/28 22:25:05;;;;;;;9.90;7.40;;;;;;;13.41;76.41;100325.64;209763;1297;139765;-73
2022/10/28 22:30:14;;;;;;;8.90;6.80;;;;;;;13.37;76.42;100329.36;210103;1297;139437;-70
2022/10/28 22:35:19;;;;;;;13.00;7.20;;;;;;;13.32;76.40;100326.53;210077;1297;140309;-75
2022/10/28 22:40:25;;;;;;;9.70;6.40;;;;;;;13.28;76.25;100321.40;209886;1294;140964;-75
2022/10/28 22:45:30;;;;;;;9.40;7.10;;;;;;;13.24;76.38;100319.98;210039;1305;140681;-75
2022/10/28 22:50:34;;;;;;;8.10;6.50;;;;;;;13.22;76.64;100318.13;207146;1281;142917;-71
2022/10/28 22:55:39;;;;;;;10.90;6.80;;;;;;;13.21;76.72;100318.05;209898;1291;140503;-71
2022/10/28 23:00:45;;;;;;;9.70;6.90;;;;;;;13.19;76.49;100315.64;208044;1302;141325;-74
2022/10/28 23:05:50;;;;;;;11.30;6.60;;;;;;;13.14;76.45;100311.69;209989;1291;139540;-75
2022/10/28 23:10:56;;;;;;;11.80;6.70;;;;;;;13.09;76.61;100311.38;207951;1299;1134618;-75
2022/10/28 23:16:09;;;;;;;13.30;7.80;;;;;;;13.06;76.44;100311.73;209764;1299;141770;-75